sensor_id;sensor_type;location;lat;lon;timestamp;pressure;altitude;pressure_sealevel;temperature;humidity
54666;BME280;40566;50.006;36.180;2024-02-26T00:00:25;100970.59;;;-1.96;60.06
54666;BME280;40566;50.006;36.180;2024-02-26T00:05:44;100978.94;;;-1.99;60.32
54666;BME280;40566;50.006;36.180;2024-02-26T00:11:03;100970.25;;;-2.04;60.21
54666;BME280;40566;50.006;36.180;2024-02-26T00:16:22;100967.66;;;-2.06;60.46
54666;BME280;40566;50.006;36.180;2024-02-26T00:21:41;100967.31;;;-2.13;60.47
54666;BME280;40566;50.006;36.180;2024-02-26T00:27:03;100963.91;;;-2.14;60.51
54666;BME280;40566;50.006;36.180;2024-02-26T00:32:22;100975.66;;;-2.16;60.52
54666;BME280;40566;50.006;36.180;2024-02-26T00:37:41;100970.59;;;-2.16;60.62
54666;BME280;40566;50.006;36.180;2024-02-26T00:43:02;100962.06;;;-2.18;60.53
54666;BME280;40566;50.006;36.180;2024-02-26T00:48:21;100952.59;;;-2.22;60.62
54666;BME280;40566;50.006;36.180;2024-02-26T00:53:40;100961.03;;;-2.22;60.56
54666;BME280;40566;50.006;36.180;2024-02-26T00:58:59;100962.91;;;-2.17;60.55
54666;BME280;40566;50.006;36.180;2024-02-26T01:04:18;100955.94;;;-2.23;60.81
54666;BME280;40566;50.006;36.180;2024-02-26T01:09:37;100961.03;;;-2.22;60.71
54666;BME280;40566;50.006;36.180;2024-02-26T01:14:56;100955.03;;;-2.24;60.96
54666;BME280;40566;50.006;36.180;2024-02-26T01:20:15;100954.19;;;-2.24;60.84
54666;BME280;40566;50.006;36.180;2024-02-26T01:25:34;100945.25;;;-2.35;61.06
54666;BME280;40566;50.006;36.180;2024-02-26T01:30:53;100954.31;;;-2.41;61.02
54666;BME280;40566;50.006;36.180;2024-02-26T01:36:12;100949.25;;;-2.41;61.06
54666;BME280;40566;50.006;36.180;2024-02-26T01:41:31;100946.84;;;-2.37;61.00
54666;BME280;40566;50.006;36.180;2024-02-26T01:46:50;100948.72;;;-2.33;60.94
54666;BME280;40566;50.006;36.180;2024-02-26T01:52:10;100935.66;;;-2.43;61.17
54666;BME280;40566;50.006;36.180;2024-02-26T01:57:30;100927.13;;;-2.45;61.34
54666;BME280;40566;50.006;36.180;2024-02-26T02:02:50;100933.56;;;-2.51;61.34
54666;BME280;40566;50.006;36.180;2024-02-26T02:08:10;100923.59;;;-2.48;61.52
54666;BME280;40566;50.006;36.180;2024-02-26T02:13:32;100916.84;;;-2.48;61.26
54666;BME280;40566;50.006;36.180;2024-02-26T02:18:51;100930.03;;;-2.55;61.53
54666;BME280;40566;50.006;36.180;2024-02-26T02:24:11;100926.44;;;-2.60;61.84
54666;BME280;40566;50.006;36.180;2024-02-26T02:29:30;100918.00;;;-2.61;61.72
54666;BME280;40566;50.006;36.180;2024-02-26T02:34:49;100917.38;;;-2.55;61.64
54666;BME280;40566;50.006;36.180;2024-02-26T02:40:08;100908.97;;;-2.54;61.62
54666;BME280;40566;50.006;36.180;2024-02-26T02:45:28;100915.75;;;-2.53;61.58
54666;BME280;40566;50.006;36.180;2024-02-26T02:50:47;100914.84;;;-2.55;61.80
54666;BME280;40566;50.006;36.180;2024-02-26T02:56:06;100919.78;;;-2.58;61.92
54666;BME280;40566;50.006;36.180;2024-02-26T03:01:25;100915.38;;;-2.62;61.90
54666;BME280;40566;50.006;36.180;2024-02-26T03:06:44;100909.47;;;-2.63;62.04
54666;BME280;40566;50.006;36.180;2024-02-26T03:12:03;100908.66;;;-2.62;61.97
54666;BME280;40566;50.006;36.180;2024-02-26T03:17:22;100917.38;;;-2.55;61.88
54666;BME280;40566;50.006;36.180;2024-02-26T03:22:43;100923.59;;;-2.48;61.84
54666;BME280;40566;50.006;36.180;2024-02-26T03:28:02;100924.03;;;-2.37;61.89
54666;BME280;40566;50.006;36.180;2024-02-26T03:33:22;100925.88;;;-2.35;61.63
54666;BME280;40566;50.006;36.180;2024-02-26T03:38:42;100927.41;;;-2.38;61.76
54666;BME280;40566;50.006;36.180;2024-02-26T03:44:01;100928.91;;;-2.42;61.91
54666;BME280;40566;50.006;36.180;2024-02-26T03:49:21;100927.06;;;-2.46;61.90
54666;BME280;40566;50.006;36.180;2024-02-26T03:54:41;100920.97;;;-2.50;62.05
54666;BME280;40566;50.006;36.180;2024-02-26T03:59:59;100917.66;;;-2.49;62.14
54666;BME280;40566;50.006;36.180;2024-02-26T04:05:19;100902.06;;;-2.58;62.20
54666;BME280;40566;50.006;36.180;2024-02-26T04:10:38;100898.97;;;-2.70;62.40
54666;BME280;40566;50.006;36.180;2024-02-26T04:15:57;100899.69;;;-2.73;62.52
54666;BME280;40566;50.006;36.180;2024-02-26T04:21:16;100892.31;;;-2.68;62.26
54666;BME280;40566;50.006;36.180;2024-02-26T04:26:35;100890.16;;;-2.79;62.47
54666;BME280;40566;50.006;36.180;2024-02-26T04:31:55;100888.56;;;-2.76;62.50
54666;BME280;40566;50.006;36.180;2024-02-26T04:37:14;100882.13;;;-2.70;62.15
54666;BME280;40566;50.006;36.180;2024-02-26T04:42:33;100885.66;;;-2.66;62.09
54666;BME280;40566;50.006;36.180;2024-02-26T04:47:52;100881.25;;;-2.70;62.32
54666;BME280;40566;50.006;36.180;2024-02-26T04:53:11;100883.16;;;-2.65;62.22
54666;BME280;40566;50.006;36.180;2024-02-26T04:58:30;100888.47;;;-2.60;62.18
54666;BME280;40566;50.006;36.180;2024-02-26T05:03:49;100888.13;;;-2.48;61.82
54666;BME280;40566;50.006;36.180;2024-02-26T05:09:08;100886.19;;;-2.54;61.85
54666;BME280;40566;50.006;36.180;2024-02-26T05:14:27;100889.72;;;-2.50;61.93
54666;BME280;40566;50.006;36.180;2024-02-26T05:19:46;100900.91;;;-2.45;61.83
54666;BME280;40566;50.006;36.180;2024-02-26T05:25:05;100897.00;;;-2.38;61.74
54666;BME280;40566;50.006;36.180;2024-02-26T05:30:24;100897.25;;;-2.32;61.62
54666;BME280;40566;50.006;36.180;2024-02-26T05:35:46;100902.56;;;-2.26;61.55
54666;BME280;40566;50.006;36.180;2024-02-26T05:41:05;100897.69;;;-2.22;61.46
54666;BME280;40566;50.006;36.180;2024-02-26T05:46:24;100887.13;;;-2.11;61.34
54666;BME280;40566;50.006;36.180;2024-02-26T05:51:43;100885.50;;;-2.11;61.30
54666;BME280;40566;50.006;36.180;2024-02-26T05:57:02;100874.47;;;-2.11;61.37
54666;BME280;40566;50.006;36.180;2024-02-26T06:02:22;100872.72;;;-1.93;60.96
54666;BME280;40566;50.006;36.180;2024-02-26T06:07:41;100865.84;;;-1.95;60.79
54666;BME280;40566;50.006;36.180;2024-02-26T06:13:00;100870.25;;;-1.91;60.90
54666;BME280;40566;50.006;36.180;2024-02-26T06:18:18;100873.44;;;-1.74;60.61
54666;BME280;40566;50.006;36.180;2024-02-26T06:23:38;100878.38;;;-1.56;60.40
54666;BME280;40566;50.006;36.180;2024-02-26T06:28:59;100899.75;;;-1.29;59.99
54666;BME280;40566;50.006;36.180;2024-02-26T06:34:18;100898.81;;;-1.10;59.65
54666;BME280;40566;50.006;36.180;2024-02-26T06:39:37;100914.22;;;-0.83;59.51
54666;BME280;40566;50.006;36.180;2024-02-26T06:44:57;100918.25;;;-0.65;59.04
54666;BME280;40566;50.006;36.180;2024-02-26T06:50:16;100905.84;;;-0.56;59.01
54666;BME280;40566;50.006;36.180;2024-02-26T06:55:35;100900.56;;;-0.38;58.75
54666;BME280;40566;50.006;36.180;2024-02-26T07:00:56;100905.63;;;-0.14;58.47
54666;BME280;40566;50.006;36.180;2024-02-26T07:06:15;100896.19;;;0.08;58.30
54666;BME280;40566;50.006;36.180;2024-02-26T07:11:34;100905.63;;;0.10;58.22
54666;BME280;40566;50.006;36.180;2024-02-26T07:16:53;100898.25;;;0.18;58.22
54666;BME280;40566;50.006;36.180;2024-02-26T07:22:12;100898.72;;;0.33;57.92
54666;BME280;40566;50.006;36.180;2024-02-26T07:27:31;100888.31;;;0.53;57.60
54666;BME280;40566;50.006;36.180;2024-02-26T07:32:50;100890.25;;;0.89;56.97
54666;BME280;40566;50.006;36.180;2024-02-26T07:38:09;100882.50;;;1.13;56.60
54666;BME280;40566;50.006;36.180;2024-02-26T07:43:28;100879.94;;;1.43;56.36
54666;BME280;40566;50.006;36.180;2024-02-26T07:48:47;100878.34;;;1.78;55.71
54666;BME280;40566;50.006;36.180;2024-02-26T07:54:06;100872.53;;;2.17;55.13
54666;BME280;40566;50.006;36.180;2024-02-26T07:59:25;100876.44;;;2.05;55.51
54666;BME280;40566;50.006;36.180;2024-02-26T08:04:44;100870.88;;;2.21;55.32
54666;BME280;40566;50.006;36.180;2024-02-26T08:10:03;100872.28;;;2.45;54.82
54666;BME280;40566;50.006;36.180;2024-02-26T08:15:23;100862.25;;;2.51;54.79
54666;BME280;40566;50.006;36.180;2024-02-26T08:20:42;100865.13;;;2.65;54.51
54666;BME280;40566;50.006;36.180;2024-02-26T08:26:01;100866.78;;;3.02;54.11
54666;BME280;40566;50.006;36.180;2024-02-26T08:31:19;100860.59;;;3.35;53.52
54666;BME280;40566;50.006;36.180;2024-02-26T08:36:38;100867.91;;;3.61;53.12
54666;BME280;40566;50.006;36.180;2024-02-26T08:41:57;100855.56;;;3.84;52.93
54666;BME280;40566;50.006;36.180;2024-02-26T08:47:16;100858.53;;;4.10;52.50
54666;BME280;40566;50.006;36.180;2024-02-26T08:52:35;100857.94;;;4.25;52.75
54666;BME280;40566;50.006;36.180;2024-02-26T08:57:57;100858.31;;;3.96;53.36
54666;BME280;40566;50.006;36.180;2024-02-26T09:03:16;100853.47;;;3.63;54.16
54666;BME280;40566;50.006;36.180;2024-02-26T09:08:35;100859.97;;;3.47;54.55
54666;BME280;40566;50.006;36.180;2024-02-26T09:13:57;100839.59;;;7.72;46.03
54666;BME280;40566;50.006;36.180;2024-02-26T09:19:16;100826.13;;;14.83;33.58
54666;BME280;40566;50.006;36.180;2024-02-26T09:24:36;100821.78;;;18.11;28.98
54666;BME280;40566;50.006;36.180;2024-02-26T09:29:55;100831.00;;;17.55;28.97
54666;BME280;40566;50.006;36.180;2024-02-26T09:35:13;100840.72;;;13.06;35.09
54666;BME280;40566;50.006;36.180;2024-02-26T09:40:32;100817.03;;;14.97;31.73
54666;BME280;40566;50.006;36.180;2024-02-26T09:45:55;100796.38;;;17.70;27.72
54666;BME280;40566;50.006;36.180;2024-02-26T09:51:16;100802.19;;;19.19;26.03
54666;BME280;40566;50.006;36.180;2024-02-26T09:56:39;100794.81;;;20.00;25.68
54666;BME280;40566;50.006;36.180;2024-02-26T10:02:00;100802.31;;;20.76;24.91
54666;BME280;40566;50.006;36.180;2024-02-26T10:07:20;100806.91;;;21.84;23.87
54666;BME280;40566;50.006;36.180;2024-02-26T10:12:40;100799.28;;;20.84;25.04
54666;BME280;40566;50.006;36.180;2024-02-26T10:17:59;100797.03;;;21.09;24.41
54666;BME280;40566;50.006;36.180;2024-02-26T10:23:18;100783.28;;;22.12;23.67
54666;BME280;40566;50.006;36.180;2024-02-26T10:28:37;100786.13;;;22.24;23.50
54666;BME280;40566;50.006;36.180;2024-02-26T10:33:57;100775.13;;;23.45;22.49
54666;BME280;40566;50.006;36.180;2024-02-26T10:39:16;100765.19;;;22.65;23.19
54666;BME280;40566;50.006;36.180;2024-02-26T10:44:35;100774.06;;;20.64;25.12
54666;BME280;40566;50.006;36.180;2024-02-26T10:49:55;100748.59;;;20.31;24.93
54666;BME280;40566;50.006;36.180;2024-02-26T10:55:16;100748.59;;;19.61;25.48
54666;BME280;40566;50.006;36.180;2024-02-26T11:00:39;100751.03;;;20.34;24.52
54666;BME280;40566;50.006;36.180;2024-02-26T11:05:58;100758.03;;;19.65;25.25
54666;BME280;40566;50.006;36.180;2024-02-26T11:11:19;100750.38;;;16.98;27.49
54666;BME280;40566;50.006;36.180;2024-02-26T11:16:39;100746.66;;;16.80;27.13
54666;BME280;40566;50.006;36.180;2024-02-26T11:21:59;100750.44;;;16.24;27.63
54666;BME280;40566;50.006;36.180;2024-02-26T11:27:24;100732.94;;;17.21;26.21
54666;BME280;40566;50.006;36.180;2024-02-26T11:32:48;100735.25;;;17.71;25.63
54666;BME280;40566;50.006;36.180;2024-02-26T11:38:19;100734.25;;;15.06;28.33
54666;BME280;40566;50.006;36.180;2024-02-26T11:43:50;100724.31;;;11.95;31.79
54666;BME280;40566;50.006;36.180;2024-02-26T12:00:14;100729.66;;;8.42;35.87
54666;BME280;40566;50.006;36.180;2024-02-26T12:05:41;100732.28;;;7.89;36.76
54666;BME280;40566;50.006;36.180;2024-02-26T12:11:00;100729.72;;;7.83;36.67
54666;BME280;40566;50.006;36.180;2024-02-26T12:21:55;100711.69;;;7.25;37.84
54666;BME280;40566;50.006;36.180;2024-02-26T12:27:21;100719.34;;;7.06;38.13
54666;BME280;40566;50.006;36.180;2024-02-26T12:32:40;100715.91;;;6.93;38.57
54666;BME280;40566;50.006;36.180;2024-02-26T12:37:59;100707.31;;;6.84;38.67
54666;BME280;40566;50.006;36.180;2024-02-26T12:43:19;100712.41;;;6.73;38.88
54666;BME280;40566;50.006;36.180;2024-02-26T12:48:38;100715.75;;;6.53;39.22
54666;BME280;40566;50.006;36.180;2024-02-26T12:53:58;100715.78;;;6.61;39.03
54666;BME280;40566;50.006;36.180;2024-02-26T12:59:17;100703.75;;;6.48;39.41
54666;BME280;40566;50.006;36.180;2024-02-26T13:04:38;100710.63;;;6.52;39.52
54666;BME280;40566;50.006;36.180;2024-02-26T13:09:57;100707.94;;;6.33;39.88
54666;BME280;40566;50.006;36.180;2024-02-26T13:15:18;100706.13;;;6.15;40.17
54666;BME280;40566;50.006;36.180;2024-02-26T13:20:37;100709.44;;;5.96;40.74
54666;BME280;40566;50.006;36.180;2024-02-26T13:25:58;100709.34;;;5.85;40.94
54666;BME280;40566;50.006;36.180;2024-02-26T13:31:17;100699.84;;;5.72;41.10
54666;BME280;40566;50.006;36.180;2024-02-26T13:36:37;100710.00;;;5.63;41.38
54666;BME280;40566;50.006;36.180;2024-02-26T13:41:56;100700.47;;;5.46;41.68
54666;BME280;40566;50.006;36.180;2024-02-26T13:47:16;100695.31;;;5.45;41.80
54666;BME280;40566;50.006;36.180;2024-02-26T13:52:35;100713.34;;;5.48;41.80
54666;BME280;40566;50.006;36.180;2024-02-26T13:57:54;100707.19;;;5.32;42.19
54666;BME280;40566;50.006;36.180;2024-02-26T14:03:14;100710.53;;;5.25;42.39
54666;BME280;40566;50.006;36.180;2024-02-26T14:08:34;100712.16;;;5.15;42.67
54666;BME280;40566;50.006;36.180;2024-02-26T14:13:53;100716.31;;;5.02;42.66
54666;BME280;40566;50.006;36.180;2024-02-26T14:19:13;100722.16;;;4.90;43.00
54666;BME280;40566;50.006;36.180;2024-02-26T14:24:32;100732.31;;;4.81;43.16
54666;BME280;40566;50.006;36.180;2024-02-26T14:29:51;100730.59;;;4.80;43.50
54666;BME280;40566;50.006;36.180;2024-02-26T14:35:10;100734.84;;;4.76;43.48
54666;BME280;40566;50.006;36.180;2024-02-26T14:40:30;100745.00;;;4.72;43.60
54666;BME280;40566;50.006;36.180;2024-02-26T14:45:51;100744.00;;;4.59;44.01
54666;BME280;40566;50.006;36.180;2024-02-26T14:51:09;100742.97;;;4.45;44.25
54666;BME280;40566;50.006;36.180;2024-02-26T14:56:29;100745.28;;;4.28;44.60
54666;BME280;40566;50.006;36.180;2024-02-26T15:01:48;100741.66;;;4.12;44.82
54666;BME280;40566;50.006;36.180;2024-02-26T15:07:07;100743.97;;;3.96;44.95
54666;BME280;40566;50.006;36.180;2024-02-26T15:12:26;100736.94;;;3.82;45.11
54666;BME280;40566;50.006;36.180;2024-02-26T15:17:47;100755.56;;;3.73;45.25
54666;BME280;40566;50.006;36.180;2024-02-26T15:23:07;100761.38;;;3.64;45.23
54666;BME280;40566;50.006;36.180;2024-02-26T15:28:28;100778.22;;;3.51;45.63
54666;BME280;40566;50.006;36.180;2024-02-26T15:33:47;100778.06;;;3.42;45.63
54666;BME280;40566;50.006;36.180;2024-02-26T15:39:06;100786.44;;;3.35;45.87
54666;BME280;40566;50.006;36.180;2024-02-26T15:44:26;100784.56;;;3.25;46.07
54666;BME280;40566;50.006;36.180;2024-02-26T15:49:45;100797.16;;;3.15;46.37
54666;BME280;40566;50.006;36.180;2024-02-26T15:55:05;100800.31;;;3.02;46.59
54666;BME280;40566;50.006;36.180;2024-02-26T16:00:24;100797.66;;;2.97;46.73
54666;BME280;40566;50.006;36.180;2024-02-26T16:05:43;100814.63;;;2.94;46.75
54666;BME280;40566;50.006;36.180;2024-02-26T16:11:02;100804.28;;;2.88;46.91
54666;BME280;40566;50.006;36.180;2024-02-26T16:16:25;100805.84;;;2.81;47.09
54666;BME280;40566;50.006;36.180;2024-02-26T16:21:45;100802.31;;;2.76;47.25
54666;BME280;40566;50.006;36.180;2024-02-26T16:27:04;100805.72;;;2.75;47.23
54666;BME280;40566;50.006;36.180;2024-02-26T16:32:23;100810.03;;;2.77;47.31
54666;BME280;40566;50.006;36.180;2024-02-26T16:37:42;100807.44;;;2.76;47.45
54666;BME280;40566;50.006;36.180;2024-02-26T16:43:01;100822.00;;;2.80;47.52
54666;BME280;40566;50.006;36.180;2024-02-26T16:48:20;100822.72;;;2.73;47.54
54666;BME280;40566;50.006;36.180;2024-02-26T16:53:39;100825.06;;;2.64;47.85
54666;BME280;40566;50.006;36.180;2024-02-26T16:58:58;100830.97;;;2.61;47.91
54666;BME280;40566;50.006;36.180;2024-02-26T17:04:17;100841.88;;;2.54;48.19
54666;BME280;40566;50.006;36.180;2024-02-26T17:09:36;100836.63;;;2.48;48.10
54666;BME280;40566;50.006;36.180;2024-02-26T17:14:55;100832.34;;;2.47;48.28
54666;BME280;40566;50.006;36.180;2024-02-26T17:20:14;100839.69;;;2.33;48.59
54666;BME280;40566;50.006;36.180;2024-02-26T17:25:33;100846.38;;;2.28;48.88
54666;BME280;40566;50.006;36.180;2024-02-26T17:30:52;100857.41;;;2.25;48.86
54666;BME280;40566;50.006;36.180;2024-02-26T17:36:11;100866.53;;;2.17;49.22
54666;BME280;40566;50.006;36.180;2024-02-26T17:41:31;100870.53;;;2.06;49.34
54666;BME280;40566;50.006;36.180;2024-02-26T17:46:50;100876.19;;;1.95;49.84
54666;BME280;40566;50.006;36.180;2024-02-26T17:52:09;100880.38;;;1.92;49.70
54666;BME280;40566;50.006;36.180;2024-02-26T17:57:28;100882.78;;;1.87;50.01
54666;BME280;40566;50.006;36.180;2024-02-26T18:02:48;100886.72;;;1.74;50.17
54666;BME280;40566;50.006;36.180;2024-02-26T18:08:07;100889.81;;;1.63;50.35
54666;BME280;40566;50.006;36.180;2024-02-26T18:13:26;100881.94;;;1.55;50.49
54666;BME280;40566;50.006;36.180;2024-02-26T18:18:45;100893.59;;;1.45;50.66
54666;BME280;40566;50.006;36.180;2024-02-26T18:24:06;100891.72;;;1.39;50.90
54666;BME280;40566;50.006;36.180;2024-02-26T18:29:25;100885.53;;;1.31;51.05
54666;BME280;40566;50.006;36.180;2024-02-26T18:34:44;100890.19;;;1.16;51.42
54666;BME280;40566;50.006;36.180;2024-02-26T18:40:04;100888.31;;;1.09;51.49
54666;BME280;40566;50.006;36.180;2024-02-26T18:45:25;100891.44;;;1.00;51.73
54666;BME280;40566;50.006;36.180;2024-02-26T18:50:44;100898.06;;;0.93;51.79
54666;BME280;40566;50.006;36.180;2024-02-26T18:56:06;100887.56;;;0.84;52.10
54666;BME280;40566;50.006;36.180;2024-02-26T19:01:25;100898.38;;;0.77;52.11
54666;BME280;40566;50.006;36.180;2024-02-26T19:06:46;100905.69;;;0.66;52.35
54666;BME280;40566;50.006;36.180;2024-02-26T19:12:06;100908.91;;;0.61;52.53
54666;BME280;40566;50.006;36.180;2024-02-26T19:17:25;100910.47;;;0.55;52.59
54666;BME280;40566;50.006;36.180;2024-02-26T19:22:48;100913.63;;;0.48;52.91
54666;BME280;40566;50.006;36.180;2024-02-26T19:28:07;100921.13;;;0.44;52.97
54666;BME280;40566;50.006;36.180;2024-02-26T19:33:26;100919.25;;;0.38;53.20
54666;BME280;40566;50.006;36.180;2024-02-26T19:38:48;100925.72;;;0.28;53.36
54666;BME280;40566;50.006;36.180;2024-02-26T19:44:11;100923.56;;;0.15;53.87
54666;BME280;40566;50.006;36.180;2024-02-26T19:49:30;100925.13;;;0.11;53.86
54666;BME280;40566;50.006;36.180;2024-02-26T19:54:49;100918.88;;;0.02;53.74
54666;BME280;40566;50.006;36.180;2024-02-26T20:00:09;100927.13;;;-0.06;54.11
54666;BME280;40566;50.006;36.180;2024-02-26T20:05:28;100916.69;;;-0.13;54.41
54666;BME280;40566;50.006;36.180;2024-02-26T20:10:47;100919.09;;;-0.16;54.51
54666;BME280;40566;50.006;36.180;2024-02-26T20:16:09;100920.88;;;-0.14;54.56
54666;BME280;40566;50.006;36.180;2024-02-26T20:21:28;100912.13;;;-0.22;54.60
54666;BME280;40566;50.006;36.180;2024-02-26T20:26:47;100922.22;;;-0.25;54.89
54666;BME280;40566;50.006;36.180;2024-02-26T20:32:08;100919.59;;;-0.27;54.89
54666;BME280;40566;50.006;36.180;2024-02-26T20:37:27;100928.84;;;-0.29;54.84
54666;BME280;40566;50.006;36.180;2024-02-26T20:42:46;100936.53;;;-0.27;54.88
54666;BME280;40566;50.006;36.180;2024-02-26T20:48:06;100940.72;;;-0.29;55.03
54666;BME280;40566;50.006;36.180;2024-02-26T20:53:25;100939.81;;;-0.30;55.11
54666;BME280;40566;50.006;36.180;2024-02-26T20:58:46;100941.44;;;-0.32;55.33
54666;BME280;40566;50.006;36.180;2024-02-26T21:04:08;100935.22;;;-0.40;55.28
54666;BME280;40566;50.006;36.180;2024-02-26T21:09:33;100940.22;;;-0.43;55.45
54666;BME280;40566;50.006;36.180;2024-02-26T21:14:52;100934.09;;;-0.48;55.56
54666;BME280;40566;50.006;36.180;2024-02-26T21:20:12;100943.19;;;-0.55;55.83
54666;BME280;40566;50.006;36.180;2024-02-26T21:25:33;100943.91;;;-0.57;55.70
54666;BME280;40566;50.006;36.180;2024-02-26T21:30:52;100947.16;;;-0.62;55.74
54666;BME280;40566;50.006;36.180;2024-02-26T21:36:15;100951.28;;;-0.65;55.87
54666;BME280;40566;50.006;36.180;2024-02-26T21:41:36;100950.22;;;-0.70;56.11
54666;BME280;40566;50.006;36.180;2024-02-26T21:46:55;100952.53;;;-0.76;56.11
54666;BME280;40566;50.006;36.180;2024-02-26T21:52:14;100942.16;;;-0.83;56.20
54666;BME280;40566;50.006;36.180;2024-02-26T21:57:36;100953.00;;;-0.87;56.30
54666;BME280;40566;50.006;36.180;2024-02-26T22:02:54;100951.50;;;-1.04;56.57
54666;BME280;40566;50.006;36.180;2024-02-26T22:08:13;100956.66;;;-1.01;56.37
54666;BME280;40566;50.006;36.180;2024-02-26T22:13:32;100964.81;;;-1.10;56.62
54666;BME280;40566;50.006;36.180;2024-02-26T22:18:51;100962.22;;;-1.11;56.63
54666;BME280;40566;50.006;36.180;2024-02-26T22:24:11;100956.34;;;-1.10;56.71
54666;BME280;40566;50.006;36.180;2024-02-26T22:29:30;100951.06;;;-1.15;56.98
54666;BME280;40566;50.006;36.180;2024-02-26T22:34:49;100954.28;;;-1.19;56.78
54666;BME280;40566;50.006;36.180;2024-02-26T22:40:08;100953.88;;;-1.30;57.05
54666;BME280;40566;50.006;36.180;2024-02-26T22:45:28;100958.47;;;-1.42;57.41
54666;BME280;40566;50.006;36.180;2024-02-26T22:50:46;100962.09;;;-1.35;57.28
54666;BME280;40566;50.006;36.180;2024-02-26T22:56:05;100965.25;;;-1.41;57.27
54666;BME280;40566;50.006;36.180;2024-02-26T23:01:26;100963.41;;;-1.45;57.44
54666;BME280;40566;50.006;36.180;2024-02-26T23:06:45;100958.84;;;-1.54;57.69
54666;BME280;40566;50.006;36.180;2024-02-26T23:12:04;100959.00;;;-1.49;57.45
54666;BME280;40566;50.006;36.180;2024-02-26T23:17:23;100964.16;;;-1.48;57.55
54666;BME280;40566;50.006;36.180;2024-02-26T23:22:44;100965.69;;;-1.51;57.50
54666;BME280;40566;50.006;36.180;2024-02-26T23:28:03;100960.16;;;-1.62;57.72
54666;BME280;40566;50.006;36.180;2024-02-26T23:33:23;100959.31;;;-1.63;57.76
54666;BME280;40566;50.006;36.180;2024-02-26T23:38:42;100956.91;;;-1.60;57.72
54666;BME280;40566;50.006;36.180;2024-02-26T23:44:01;100969.22;;;-1.69;57.83
54666;BME280;40566;50.006;36.180;2024-02-26T23:49:20;100976.13;;;-1.65;57.70
54666;BME280;40566;50.006;36.180;2024-02-26T23:54:39;100976.38;;;-1.58;57.53
54666;BME280;40566;50.006;36.180;2024-02-26T23:59:58;100980.22;;;-1.68;57.84
